createdAt,value
2023-04-11T00:00:10.438Z,5.35
2023-04-11T00:03:02.565Z,5.37
2023-04-11T00:05:31.807Z,5.34
2023-04-11T00:08:00.880Z,5.32
2023-04-11T00:10:29.606Z,5.31
2023-04-11T00:12:58.988Z,5.25
2023-04-11T00:15:28.364Z,5.25
2023-04-11T00:17:58.091Z,5.22
2023-04-11T00:20:26.909Z,5.21
2023-04-11T00:22:57.828Z,5.21
2023-04-11T00:25:27.060Z,5.18
2023-04-11T00:27:56.002Z,5.15
2023-04-11T00:30:25.149Z,5.12
2023-04-11T00:32:54.168Z,5.10
2023-04-11T00:35:23.342Z,5.07
2023-04-11T00:37:55.599Z,5.04
2023-04-11T00:40:24.900Z,4.99
2023-04-11T00:42:55.922Z,4.97
2023-04-11T00:45:25.811Z,4.97
2023-04-11T00:47:54.920Z,4.96
2023-04-11T00:50:24.510Z,4.96
2023-04-11T00:52:55.269Z,4.93
2023-04-11T00:55:26.108Z,4.90
2023-04-11T00:57:56.161Z,4.91
2023-04-11T01:00:26.839Z,4.87
2023-04-11T01:02:56.036Z,4.89
2023-04-11T01:05:25.558Z,4.86
2023-04-11T01:07:55.261Z,4.83
2023-04-11T01:10:28.385Z,4.83
2023-04-11T01:12:59.186Z,4.79
2023-04-11T01:15:28.583Z,4.79
2023-04-11T01:18:01.496Z,4.76
2023-04-11T01:20:32.833Z,4.75
2023-04-11T01:23:02.742Z,4.73
2023-04-11T01:25:31.639Z,4.71
2023-04-11T01:28:00.515Z,4.69
2023-04-11T01:30:29.434Z,4.65
2023-04-11T01:32:58.404Z,4.66
2023-04-11T01:35:27.407Z,4.63
2023-04-11T01:37:56.419Z,4.62
2023-04-11T01:40:25.957Z,4.62
2023-04-11T01:42:55.659Z,4.59
2023-04-11T01:45:25.268Z,4.61
2023-04-11T01:47:54.293Z,4.58
2023-04-11T01:50:23.668Z,4.56
2023-04-11T01:52:52.837Z,4.54
2023-04-11T01:55:21.948Z,4.52
2023-04-11T01:57:50.738Z,4.51
2023-04-11T02:00:21.219Z,4.51
2023-04-11T02:02:50.069Z,4.48
2023-04-11T02:05:20.016Z,4.47
2023-04-11T02:07:49.426Z,4.44
2023-04-11T02:10:20.078Z,4.45
2023-04-11T02:12:49.005Z,4.41
2023-04-11T02:15:18.314Z,4.38
2023-04-11T02:17:47.651Z,4.35
2023-04-11T02:20:16.715Z,4.34
2023-04-11T02:22:45.656Z,4.34
2023-04-11T02:25:17.933Z,4.31
2023-04-11T02:27:46.866Z,4.29
2023-04-11T02:30:16.437Z,4.25
2023-04-11T02:32:48.864Z,4.24
2023-04-11T02:35:18.018Z,4.22
2023-04-11T02:37:46.920Z,4.18
2023-04-11T02:40:15.764Z,4.17
2023-04-11T02:42:44.764Z,4.16
2023-04-11T02:45:13.827Z,4.16
2023-04-11T02:47:43.073Z,4.11
2023-04-11T02:50:12.610Z,4.11
2023-04-11T02:52:47.842Z,4.09
2023-04-11T02:55:18.124Z,4.10
2023-04-11T02:57:47.147Z,4.09
2023-04-11T03:00:18.691Z,4.09
2023-04-11T03:02:50.518Z,4.11
2023-04-11T03:05:23.438Z,4.13
2023-04-11T03:07:54.315Z,4.18
2023-04-11T03:10:23.978Z,4.21
2023-04-11T03:12:52.849Z,4.24
2023-04-11T03:15:21.952Z,4.29
2023-04-11T03:17:50.841Z,4.32
2023-04-11T03:20:20.356Z,4.35
2023-04-11T03:22:52.028Z,4.37
2023-04-11T03:25:22.174Z,4.35
2023-04-11T03:27:51.694Z,4.34
2023-04-11T03:30:20.989Z,4.35
2023-04-11T03:32:50.099Z,4.34
2023-04-11T03:35:19.999Z,4.29
2023-04-11T03:37:50.039Z,4.28
2023-04-11T03:40:19.041Z,4.25
2023-04-11T03:42:52.746Z,4.22
2023-04-11T03:45:25.251Z,4.20
2023-04-11T03:47:55.416Z,4.17
2023-04-11T03:50:27.362Z,4.14
2023-04-11T03:53:02.592Z,4.14
2023-04-11T03:55:32.100Z,4.10
2023-04-11T03:58:02.021Z,4.07
2023-04-11T04:00:31.664Z,4.04
2023-04-11T04:03:07.371Z,4.04
2023-04-11T04:05:37.919Z,4.01
2023-04-11T04:08:09.119Z,4.00
2023-04-11T04:10:47.117Z,4.01
2023-04-11T04:13:16.279Z,4.03
2023-04-11T04:16:00.247Z,4.03
2023-04-11T04:18:31.062Z,4.11
2023-04-11T04:20:59.944Z,4.13
2023-04-11T04:23:29.547Z,4.16
2023-04-11T04:26:24.416Z,4.25
2023-04-11T04:29:04.081Z,4.29
2023-04-11T04:31:41.100Z,4.35
2023-04-11T04:34:10.420Z,4.44
2023-04-11T04:36:47.242Z,4.48
2023-04-11T04:39:19.171Z,4.54
2023-04-11T04:41:57.741Z,4.61
2023-04-11T04:44:29.443Z,4.66
2023-04-11T04:47:02.322Z,4.76
2023-04-11T04:49:31.546Z,4.83
2023-04-11T04:52:01.443Z,4.91
2023-04-11T04:54:30.755Z,5.03
2023-04-11T04:57:01.012Z,5.17
2023-04-11T04:59:30.058Z,5.27
2023-04-11T05:02:06.040Z,5.41
2023-04-11T05:04:36.474Z,5.53
2023-04-11T05:07:06.187Z,5.69
2023-04-11T05:09:35.983Z,5.80
2023-04-11T05:12:16.126Z,5.98
2023-04-11T05:14:45.378Z,6.17
2023-04-11T05:17:14.258Z,7.00
2023-04-11T05:19:43.152Z,8.43
2023-04-11T05:22:13.014Z,9.80
2023-04-11T05:24:45.874Z,10.45
2023-04-11T05:27:15.003Z,10.82
2023-04-11T05:29:44.383Z,11.13
2023-04-11T05:32:14.051Z,11.55
2023-04-11T05:34:53.058Z,11.85
2023-04-11T05:37:26.282Z,12.10
2023-04-11T05:39:55.878Z,12.54
2023-04-11T05:42:24.787Z,13.09
2023-04-11T05:44:53.674Z,13.65
2023-04-11T05:47:24.431Z,14.42
2023-04-11T05:49:53.150Z,15.03
2023-04-11T05:52:21.995Z,15.15
2023-04-11T05:54:50.669Z,14.87
2023-04-11T05:57:19.391Z,14.40
2023-04-11T05:59:49.439Z,13.95
2023-04-11T06:02:18.520Z,13.50
2023-04-11T06:04:47.597Z,13.05
2023-04-11T06:07:16.600Z,12.58
2023-04-11T06:09:45.502Z,12.23
2023-04-11T06:12:14.190Z,11.93
2023-04-11T06:14:42.935Z,11.67
2023-04-11T06:17:12.075Z,11.58
2023-04-11T06:19:41.493Z,11.51
2023-04-11T06:22:10.245Z,11.58
2023-04-11T06:24:42.153Z,12.07
2023-04-11T06:27:11.374Z,13.23
2023-04-11T06:29:43.064Z,14.51
2023-04-11T06:32:12.838Z,15.44
2023-04-11T06:34:42.122Z,16.61
2023-04-11T06:37:11.518Z,17.66
2023-04-11T06:39:41.317Z,18.52
2023-04-11T06:42:10.539Z,19.03
2023-04-11T06:44:44.612Z,19.17
2023-04-11T06:47:14.758Z,19.63
2023-04-11T06:49:44.071Z,20.22
2023-04-11T06:52:13.914Z,20.96
2023-04-11T06:54:42.880Z,22.03
2023-04-11T06:57:13.143Z,22.94
2023-04-11T06:59:42.481Z,23.35
2023-04-11T07:02:12.388Z,23.80
2023-04-11T07:04:43.601Z,24.25
2023-04-11T07:07:12.695Z,24.01
2023-04-11T07:09:42.973Z,23.55
2023-04-11T07:12:11.904Z,23.30
2023-04-11T07:14:41.282Z,23.09
2023-04-11T07:17:10.095Z,22.67
2023-04-11T07:19:38.856Z,22.24
2023-04-11T07:22:08.452Z,21.74
2023-04-11T07:24:37.437Z,20.76
2023-04-11T07:27:06.238Z,19.91
2023-04-11T07:29:35.332Z,19.11
2023-04-11T07:32:04.551Z,18.28
2023-04-11T07:34:33.929Z,17.56
2023-04-11T07:37:05.912Z,17.10
2023-04-11T07:39:35.768Z,17.23
2023-04-11T07:42:05.382Z,17.68
2023-04-11T07:44:34.457Z,17.97
2023-04-11T07:47:03.617Z,18.18
2023-04-11T07:49:33.210Z,18.17
2023-04-11T07:52:02.325Z,18.36
2023-04-11T07:54:33.665Z,18.76
2023-04-11T07:57:03.166Z,19.39
2023-04-11T07:59:33.348Z,20.10
2023-04-11T08:02:04.502Z,20.68
2023-04-11T08:04:34.609Z,20.94
2023-04-11T08:07:04.451Z,21.24
2023-04-11T08:09:34.195Z,21.41
2023-04-11T08:12:03.925Z,21.39
2023-04-11T08:14:34.260Z,21.58
2023-04-11T08:17:05.421Z,21.81
2023-04-11T08:19:37.426Z,22.03
2023-04-11T08:22:06.485Z,21.53
2023-04-11T08:24:35.624Z,21.05
2023-04-11T08:27:05.024Z,20.49
2023-04-11T08:29:34.242Z,19.93
2023-04-11T08:32:04.543Z,19.79
2023-04-11T08:34:34.686Z,19.14
2023-04-11T08:37:04.275Z,18.44
2023-04-11T08:39:33.257Z,18.32
2023-04-11T08:42:02.199Z,19.34
2023-04-11T08:44:31.055Z,20.27
2023-04-11T08:47:00.053Z,20.73
2023-04-11T08:49:29.401Z,21.46
2023-04-11T08:51:58.857Z,21.74
2023-04-11T08:54:27.906Z,22.39
2023-04-11T08:56:57.251Z,23.05
2023-04-11T08:59:29.044Z,23.67
2023-04-11T09:02:08.800Z,24.08
2023-04-11T09:04:42.109Z,24.01
2023-04-11T09:07:11.690Z,23.97
2023-04-11T09:09:41.358Z,23.70
2023-04-11T09:12:14.485Z,23.55
2023-04-11T09:14:43.902Z,23.35
2023-04-11T09:17:13.893Z,22.72
2023-04-11T09:19:43.263Z,21.84
2023-04-11T09:22:15.639Z,21.27
2023-04-11T09:24:46.305Z,21.08
2023-04-11T09:27:19.078Z,20.94
2023-04-11T09:29:48.630Z,20.76
2023-04-11T09:32:40.589Z,20.43
2023-04-11T09:35:15.603Z,20.14
2023-04-11T09:37:47.346Z,20.05
2023-04-11T09:40:19.867Z,20.07
2023-04-11T09:42:55.671Z,20.14
2023-04-11T09:45:25.921Z,20.07
2023-04-11T09:47:56.215Z,19.83
2023-04-11T09:50:27.585Z,19.60
2023-04-11T09:52:59.099Z,19.41
2023-04-11T09:55:28.318Z,19.39
2023-04-11T09:57:57.228Z,19.18
2023-04-11T10:00:29.488Z,19.04
2023-04-11T10:02:59.327Z,19.10
2023-04-11T10:05:29.875Z,19.24
2023-04-11T10:08:05.247Z,19.45
2023-04-11T10:10:35.622Z,19.56
2023-04-11T10:13:45.143Z,19.63
2023-04-11T10:16:24.011Z,19.53
2023-04-11T10:19:26.736Z,19.30
2023-04-11T10:21:55.618Z,19.21
2023-04-11T10:24:26.182Z,19.10
2023-04-11T10:26:57.972Z,19.04
2023-04-11T10:29:54.408Z,19.17
2023-04-11T10:32:26.348Z,19.34
2023-04-11T10:35:25.228Z,19.41
2023-04-11T10:37:54.145Z,19.52
2023-04-11T10:40:24.592Z,19.68
2023-04-11T10:42:53.522Z,19.76
2023-04-11T10:45:24.863Z,19.77
2023-04-11T10:48:11.600Z,19.73
2023-04-11T10:50:43.983Z,19.53
2023-04-11T10:53:36.586Z,19.30
2023-04-11T10:56:08.672Z,19.11
2023-04-11T10:58:40.371Z,18.94
2023-04-11T11:01:32.028Z,18.73
2023-04-11T11:04:07.977Z,18.55
2023-04-11T11:06:46.815Z,18.56
2023-04-11T11:09:23.890Z,18.66
2023-04-11T11:12:10.573Z,18.76
2023-04-11T11:14:41.945Z,18.70
2023-04-11T11:17:13.178Z,18.63
2023-04-11T11:19:45.626Z,18.44
2023-04-11T11:22:18.764Z,18.23
2023-04-11T11:24:47.759Z,18.11
2023-04-11T11:27:24.602Z,18.10
2023-04-11T11:29:53.964Z,18.08
2023-04-11T11:32:27.483Z,18.04
2023-04-11T11:34:58.350Z,17.92
2023-04-11T11:37:27.262Z,17.87
2023-04-11T11:39:58.088Z,17.90
2023-04-11T11:42:28.020Z,17.90
2023-04-11T11:45:14.947Z,17.92
2023-04-11T11:47:45.883Z,17.97
2023-04-11T11:50:26.837Z,17.99
2023-04-11T11:53:11.837Z,18.10
2023-04-11T11:55:43.181Z,18.06
2023-04-11T11:58:12.081Z,18.01
2023-04-11T12:00:48.796Z,17.97
2023-04-11T12:03:24.698Z,17.99
2023-04-11T12:05:57.934Z,18.04
2023-04-11T12:08:44.450Z,18.10
2023-04-11T12:11:25.188Z,18.10
2023-04-11T12:13:58.868Z,18.03
2023-04-11T12:16:29.965Z,18.00
2023-04-11T12:19:05.244Z,17.97
2023-04-11T12:21:38.286Z,17.97
2023-04-11T12:24:10.448Z,17.96
2023-04-11T12:26:57.512Z,18.01
2023-04-11T12:29:33.756Z,18.03
2023-04-11T12:32:04.642Z,18.13
2023-04-11T12:34:34.722Z,18.04
2023-04-11T12:37:06.782Z,17.99
2023-04-11T12:39:38.604Z,18.06
2023-04-11T12:42:12.049Z,18.20
2023-04-11T12:44:46.431Z,18.32
2023-04-11T12:47:25.920Z,18.44
2023-04-11T12:50:03.605Z,18.54
2023-04-11T12:52:34.273Z,18.54
2023-04-11T12:55:04.158Z,18.49
2023-04-11T12:57:33.144Z,18.47
2023-04-11T13:00:07.705Z,18.36
2023-04-11T13:02:42.884Z,18.24
2023-04-11T13:05:14.805Z,18.06
2023-04-11T13:07:45.633Z,17.80
2023-04-11T13:10:16.172Z,17.52
2023-04-11T13:12:46.073Z,17.30
2023-04-11T13:15:16.923Z,17.20
2023-04-11T13:17:50.577Z,17.06
2023-04-11T13:20:19.951Z,16.99
2023-04-11T13:22:48.710Z,16.93
2023-04-11T13:25:18.393Z,16.82
2023-04-11T13:27:47.387Z,16.73
2023-04-11T13:30:16.495Z,16.75
2023-04-11T13:32:45.443Z,16.73
2023-04-11T13:35:16.840Z,16.76
2023-04-11T13:37:45.576Z,16.70
2023-04-11T13:40:15.671Z,16.72
2023-04-11T13:42:44.574Z,16.72
2023-04-11T13:45:13.854Z,16.72
2023-04-11T13:47:44.550Z,16.69
2023-04-11T13:50:13.736Z,16.68
2023-04-11T13:52:43.509Z,16.63
2023-04-11T13:55:12.370Z,16.68
2023-04-11T13:57:41.989Z,16.65
2023-04-11T14:00:15.570Z,16.66
2023-04-11T14:02:44.770Z,16.63
2023-04-11T14:05:14.309Z,16.69
2023-04-11T14:07:43.475Z,16.69
2023-04-11T14:10:12.433Z,16.68
2023-04-11T14:12:42.412Z,16.70
2023-04-11T14:15:12.553Z,16.72
2023-04-11T14:17:43.355Z,16.70
2023-04-11T14:20:16.256Z,16.66
2023-04-11T14:22:46.273Z,16.63
2023-04-11T14:25:15.740Z,16.62
2023-04-11T14:27:45.741Z,16.61
2023-04-11T14:30:15.181Z,16.58
2023-04-11T14:32:44.573Z,16.54
2023-04-11T14:35:13.545Z,16.52
2023-04-11T14:37:44.463Z,16.54
2023-04-11T14:40:14.153Z,16.52
2023-04-11T14:42:43.625Z,16.45
2023-04-11T14:45:12.670Z,16.40
2023-04-11T14:47:42.946Z,16.32
2023-04-11T14:50:12.359Z,16.27
2023-04-11T14:52:44.342Z,16.27
2023-04-11T14:55:13.726Z,16.32
2023-04-11T14:57:46.740Z,16.35
2023-04-11T15:00:21.613Z,16.37
2023-04-11T15:02:53.330Z,16.34
2023-04-11T15:05:23.747Z,16.35
2023-04-11T15:07:54.124Z,16.35
2023-04-11T15:10:27.022Z,16.42
2023-04-11T15:12:56.114Z,16.47
2023-04-11T15:15:25.790Z,16.47
2023-04-11T15:18:23.576Z,16.47
2023-04-11T15:20:54.234Z,16.54
2023-04-11T15:23:24.553Z,16.58
2023-04-11T15:25:54.762Z,16.56
2023-04-11T15:28:24.909Z,16.55
2023-04-11T15:30:55.069Z,16.56
2023-04-11T15:33:24.424Z,16.54
2023-04-11T15:35:56.395Z,16.56
2023-04-11T15:38:28.283Z,16.61
2023-04-11T15:40:59.283Z,16.58
2023-04-11T15:43:28.524Z,16.54
2023-04-11T15:45:57.461Z,16.51
2023-04-11T15:48:26.331Z,16.47
2023-04-11T15:50:55.797Z,16.41
2023-04-11T15:53:25.085Z,16.34
2023-04-11T15:55:56.745Z,16.27
2023-04-11T15:58:26.840Z,16.19
2023-04-11T16:01:00.578Z,16.13
2023-04-11T16:03:31.765Z,16.07
2023-04-11T16:06:01.514Z,16.00
2023-04-11T16:08:30.652Z,15.93
2023-04-11T16:10:59.554Z,15.86
2023-04-11T16:13:28.641Z,15.85
2023-04-11T16:15:58.604Z,15.80
2023-04-11T16:18:27.771Z,15.76
2023-04-11T16:20:56.750Z,15.69
2023-04-11T16:23:26.331Z,15.61
2023-04-11T16:25:55.728Z,15.57
2023-04-11T16:28:24.661Z,15.50
2023-04-11T16:30:53.604Z,15.45
2023-04-11T16:33:25.678Z,15.38
2023-04-11T16:35:57.464Z,15.30
2023-04-11T16:38:26.886Z,15.24
2023-04-11T16:40:56.167Z,15.20
2023-04-11T16:43:25.257Z,15.13
2023-04-11T16:45:58.938Z,15.03
2023-04-11T16:48:29.842Z,14.97
2023-04-11T16:50:59.934Z,14.93
2023-04-11T16:53:31.443Z,14.86
2023-04-11T16:56:00.797Z,14.78
2023-04-11T16:58:30.778Z,14.71
2023-04-11T17:01:00.873Z,14.65
2023-04-11T17:03:30.357Z,14.55
2023-04-11T17:05:59.833Z,14.48
2023-04-11T17:08:29.130Z,14.42
2023-04-11T17:11:06.346Z,14.31
2023-04-11T17:13:36.405Z,14.21
2023-04-11T17:16:07.439Z,14.17
2023-04-11T17:18:37.184Z,14.09
2023-04-11T17:21:09.404Z,13.97
2023-04-11T17:23:42.334Z,13.90
2023-04-11T17:26:11.707Z,13.81
2023-04-11T17:28:44.405Z,13.71
2023-04-11T17:31:15.915Z,13.64
2023-04-11T17:33:45.953Z,13.55
2023-04-11T17:36:19.234Z,13.47
2023-04-11T17:38:48.779Z,13.37
2023-04-11T17:41:30.969Z,13.27
2023-04-11T17:44:00.934Z,13.17
2023-04-11T17:46:30.486Z,13.09
2023-04-11T17:49:01.806Z,13.00
2023-04-11T17:51:38.742Z,12.91
2023-04-11T17:58:48.814Z,12.69
2023-04-11T18:01:32.439Z,12.61
2023-04-11T18:04:02.472Z,12.52
2023-04-11T18:06:34.523Z,12.48
2023-04-11T18:09:04.808Z,12.44
2023-04-11T18:11:34.027Z,12.39
2023-04-11T18:14:03.638Z,12.33
2023-04-11T18:16:33.246Z,12.31
2023-04-11T18:19:04.177Z,12.22
2023-04-11T18:21:33.720Z,12.19
2023-04-11T18:24:03.870Z,12.13
2023-04-11T18:26:33.069Z,12.12
2023-04-11T18:29:06.715Z,12.06
2023-04-11T18:31:36.311Z,12.03
2023-04-11T18:34:06.887Z,11.96
2023-04-11T18:36:38.997Z,11.95
2023-04-11T18:39:08.699Z,11.89
2023-04-11T18:41:38.103Z,11.88
2023-04-11T18:44:13.179Z,11.82
2023-04-11T18:46:51.416Z,11.75
2023-04-11T18:49:23.754Z,11.74
2023-04-11T18:51:53.317Z,11.68
2023-04-11T18:54:23.150Z,11.62
2023-04-11T18:56:54.246Z,11.57
2023-04-11T18:59:28.771Z,11.51
2023-04-11T19:01:59.453Z,11.47
2023-04-11T19:04:30.307Z,11.44
2023-04-11T19:07:00.848Z,11.39
2023-04-11T19:09:31.136Z,11.30
2023-04-11T19:12:03.102Z,11.27
2023-04-11T19:14:45.633Z,11.23
2023-04-11T19:17:15.073Z,11.17
2023-04-11T19:19:54.925Z,11.12
2023-04-11T19:22:24.519Z,11.09
2023-04-11T19:24:54.064Z,11.05
2023-04-11T19:27:30.256Z,10.98
2023-04-11T19:30:03.226Z,10.92
2023-04-11T19:32:45.706Z,10.85
2023-04-11T19:35:23.913Z,10.77
2023-04-11T19:38:11.687Z,10.68
2023-04-11T19:40:53.208Z,10.58
2023-04-11T19:43:33.144Z,10.45
2023-04-11T19:46:02.768Z,10.33
2023-04-11T19:48:32.612Z,10.26
2023-04-11T19:51:03.006Z,10.16
2023-04-11T19:53:34.426Z,10.02
2023-04-11T19:56:04.890Z,9.94
2023-04-11T19:58:34.916Z,9.78
2023-04-11T20:01:04.629Z,9.68
2023-04-11T20:03:34.063Z,9.58
2023-04-11T20:06:05.242Z,9.50
2023-04-11T20:08:44.230Z,9.41
2023-04-11T20:11:16.079Z,9.34
2023-04-11T20:13:45.726Z,9.29
2023-04-11T20:16:16.523Z,9.29
2023-04-11T20:18:48.297Z,9.27
2023-04-11T20:21:18.504Z,9.26
2023-04-11T20:23:51.112Z,9.27
2023-04-11T20:26:24.475Z,9.29
2023-04-11T20:28:57.610Z,9.30
2023-04-11T20:31:27.442Z,9.30
2023-04-11T20:34:00.470Z,9.32
2023-04-11T20:36:30.568Z,9.33
2023-04-11T20:38:59.552Z,9.32
2023-04-11T20:41:30.032Z,9.36
2023-04-11T20:44:00.274Z,9.39
2023-04-11T20:46:29.525Z,9.37
2023-04-11T20:48:58.938Z,9.40
2023-04-11T20:51:29.788Z,9.43
2023-04-11T20:53:59.350Z,9.39
2023-04-11T20:56:28.461Z,9.40
2023-04-11T20:58:57.992Z,9.40
2023-04-11T21:01:31.960Z,9.41
2023-04-11T21:04:03.024Z,9.43
2023-04-11T21:06:33.043Z,9.41
2023-04-11T21:09:03.933Z,9.40
2023-04-11T21:11:33.123Z,9.36
2023-04-11T21:14:02.700Z,9.34
2023-04-11T21:16:32.426Z,9.30
2023-04-11T21:19:01.868Z,9.27
2023-04-11T21:21:31.224Z,9.21
2023-04-11T21:24:04.370Z,9.18
2023-04-11T21:26:33.748Z,9.12
2023-04-11T21:29:03.489Z,9.11
2023-04-11T21:31:32.608Z,9.06
2023-04-11T21:34:01.829Z,9.02
2023-04-11T21:36:31.132Z,8.96
2023-04-11T21:39:00.094Z,8.92
2023-04-11T21:41:30.288Z,8.87
2023-04-11T21:43:59.525Z,8.81
2023-04-11T21:46:28.696Z,8.77
2023-04-11T21:48:58.974Z,8.69
2023-04-11T21:51:28.534Z,8.67
2023-04-11T21:53:57.792Z,8.63
2023-04-11T21:56:26.863Z,8.56
2023-04-11T21:58:56.230Z,8.51
2023-04-11T22:01:25.260Z,8.46
2023-04-11T22:03:56.310Z,8.40
2023-04-11T22:06:29.960Z,8.35
2023-04-11T22:09:00.833Z,8.33
2023-04-11T22:11:31.065Z,8.29
2023-04-11T22:14:01.598Z,8.23
2023-04-11T22:16:33.190Z,8.18
2023-04-11T22:19:02.364Z,8.11
2023-04-11T22:21:31.997Z,8.04
2023-04-11T22:24:01.769Z,8.00
2023-04-11T22:26:33.674Z,7.95
2023-04-11T22:29:04.578Z,7.95
2023-04-11T22:31:34.726Z,7.93
2023-04-11T22:34:04.004Z,7.87
2023-04-11T22:36:35.456Z,7.85
2023-04-11T22:39:05.810Z,7.83
2023-04-11T22:41:37.884Z,7.81
2023-04-11T22:44:07.238Z,7.77
2023-04-11T22:46:38.126Z,7.76
2023-04-11T22:49:09.252Z,7.70
2023-04-11T22:51:40.174Z,7.66
2023-04-11T22:54:09.633Z,7.63
2023-04-11T22:56:38.489Z,7.61
2023-04-11T22:59:07.893Z,7.57
2023-04-11T23:01:36.805Z,7.56
2023-04-11T23:04:06.468Z,7.53
2023-04-11T23:06:35.349Z,7.53
2023-04-11T23:09:06.955Z,7.56
2023-04-11T23:11:35.807Z,7.53
2023-04-11T23:14:04.839Z,7.56
2023-04-11T23:16:33.897Z,7.60
2023-04-11T23:19:03.728Z,7.64
2023-04-11T23:21:33.098Z,7.70
2023-04-11T23:24:02.204Z,7.76
2023-04-11T23:26:31.200Z,7.81
2023-04-11T23:29:02.132Z,7.88
2023-04-11T23:31:32.036Z,7.93
2023-04-11T23:34:01.281Z,7.97
2023-04-11T23:36:30.584Z,8.02
2023-04-11T23:39:02.664Z,8.05
2023-04-11T23:41:31.832Z,8.11
2023-04-11T23:44:00.778Z,8.13
2023-04-11T23:46:29.943Z,8.18
2023-04-11T23:48:58.991Z,8.23
2023-04-11T23:51:27.784Z,8.28
2023-04-11T23:53:59.421Z,8.30
2023-04-11T23:56:28.928Z,8.36
2023-04-11T23:58:58.333Z,8.39
